createdAt,value
2017-12-09T00:02:10.903Z,3.98
2017-12-09T00:04:38.494Z,3.67
2017-12-09T00:07:06.189Z,3.09
2017-12-09T00:09:33.746Z,3.48
2017-12-09T00:12:02.178Z,2.90
2017-12-09T00:14:29.873Z,3.05
2017-12-09T00:16:57.475Z,2.63
2017-12-09T00:19:25.461Z,2.54
2017-12-09T00:21:53.071Z,1.97
2017-12-09T00:24:20.902Z,2.15
2017-12-09T00:26:48.533Z,2.35
2017-12-09T00:29:16.288Z,2.43
2017-12-09T00:31:44.438Z,2.34
2017-12-09T00:34:12.061Z,2.60
2017-12-09T00:36:39.827Z,2.66
2017-12-09T00:39:07.515Z,3.20
2017-12-09T00:41:35.074Z,3.04
2017-12-09T00:44:02.837Z,2.95
2017-12-09T00:46:31.046Z,3.24
2017-12-09T00:48:58.714Z,3.50
2017-12-09T00:51:26.328Z,3.53
2017-12-09T00:53:53.921Z,3.26
2017-12-09T00:56:21.455Z,3.30
2017-12-09T00:58:49.245Z,3.42
2017-12-09T01:01:16.778Z,3.45
2017-12-09T01:03:44.417Z,3.63
2017-12-09T01:06:11.992Z,4.01
2017-12-09T01:08:39.606Z,2.30
2017-12-09T01:11:07.164Z,2.79
2017-12-09T01:13:34.742Z,2.98
2017-12-09T01:16:13.937Z,2.95
2017-12-09T01:18:53.566Z,3.27
2017-12-09T01:21:21.267Z,3.13
2017-12-09T01:23:49.795Z,3.00
2017-12-09T01:26:17.511Z,2.83
2017-12-09T01:28:46.060Z,2.10
2017-12-09T01:31:13.778Z,2.89
2017-12-09T01:33:41.528Z,1.82
2017-12-09T01:36:09.936Z,2.55
2017-12-09T01:38:37.677Z,2.42
2017-12-09T01:41:05.269Z,2.05
2017-12-09T01:43:33.929Z,1.84
2017-12-09T01:46:01.750Z,2.14
2017-12-09T01:48:30.247Z,1.93
2017-12-09T01:50:59.079Z,2.35
2017-12-09T01:53:26.907Z,2.39
2017-12-09T01:55:54.491Z,2.72
2017-12-09T01:58:22.116Z,3.01
2017-12-09T02:00:49.658Z,2.95
2017-12-09T02:03:17.250Z,2.89
2017-12-09T02:05:45.782Z,3.02
2017-12-09T02:08:13.596Z,2.94
2017-12-09T02:10:41.563Z,2.79
2017-12-09T02:13:09.460Z,3.26
2017-12-09T02:15:37.331Z,3.04
2017-12-09T02:18:05.139Z,2.82
2017-12-09T02:20:32.971Z,2.78
2017-12-09T02:23:00.961Z,2.97
2017-12-09T02:25:29.531Z,2.03
2017-12-09T02:27:57.822Z,2.05
2017-12-09T02:30:26.345Z,2.38
2017-12-09T02:32:54.908Z,2.51
2017-12-09T02:35:22.938Z,2.84
2017-12-09T02:37:50.566Z,3.26
2017-12-09T02:40:18.174Z,2.90
2017-12-09T02:42:45.859Z,3.09
2017-12-09T02:45:13.691Z,3.11
2017-12-09T02:47:41.300Z,2.95
2017-12-09T02:50:09.658Z,3.24
2017-12-09T02:52:37.965Z,2.93
2017-12-09T02:55:05.595Z,3.06
2017-12-09T02:57:33.176Z,3.30
2017-12-09T03:00:00.986Z,3.33
2017-12-09T03:02:28.677Z,3.19
2017-12-09T03:04:56.238Z,3.30
2017-12-09T03:07:24.492Z,3.26
2017-12-09T03:09:52.119Z,3.28
2017-12-09T03:12:20.167Z,3.12
2017-12-09T03:14:48.827Z,3.17
2017-12-09T03:17:16.474Z,3.00
2017-12-09T03:19:45.813Z,3.03
2017-12-09T03:22:13.480Z,2.90
2017-12-09T03:24:41.077Z,3.29
2017-12-09T03:27:08.894Z,2.98
2017-12-09T03:29:36.697Z,2.91
2017-12-09T03:32:04.290Z,2.96
2017-12-09T03:34:32.105Z,2.16
2017-12-09T03:37:00.866Z,2.57
2017-12-09T03:39:28.487Z,2.48
2017-12-09T03:41:56.773Z,2.39
2017-12-09T03:44:24.588Z,2.65
2017-12-09T03:46:52.405Z,2.61
2017-12-09T03:49:19.980Z,2.79
2017-12-09T03:51:47.544Z,3.05
2017-12-09T03:54:15.355Z,3.00
2017-12-09T03:56:44.101Z,2.29
2017-12-09T03:59:12.144Z,2.34
2017-12-09T04:01:39.743Z,2.63
2017-12-09T04:04:07.634Z,2.51
2017-12-09T04:06:35.277Z,2.74
2017-12-09T04:09:03.929Z,2.97
2017-12-09T04:11:31.675Z,2.78
2017-12-09T04:13:59.427Z,2.48
2017-12-09T04:16:27.098Z,2.73
2017-12-09T04:18:54.698Z,2.49
2017-12-09T04:21:22.300Z,3.02
2017-12-09T04:23:50.113Z,2.62
2017-12-09T04:26:17.773Z,2.24
2017-12-09T04:28:45.355Z,1.98
2017-12-09T04:31:12.930Z,1.90
2017-12-09T04:33:40.504Z,2.32
2017-12-09T04:36:08.421Z,2.17
2017-12-09T04:38:36.152Z,2.65
2017-12-09T04:41:03.713Z,2.57
2017-12-09T04:43:32.423Z,2.60
2017-12-09T04:46:00.042Z,2.70
2017-12-09T04:48:27.606Z,2.37
2017-12-09T04:50:55.932Z,2.57
2017-12-09T04:53:23.562Z,2.81
2017-12-09T04:55:51.933Z,2.59
2017-12-09T04:58:20.290Z,2.85
2017-12-09T05:00:48.661Z,2.84
2017-12-09T05:03:16.304Z,2.99
2017-12-09T05:05:43.893Z,2.98
2017-12-09T05:08:12.248Z,2.84
2017-12-09T05:10:40.019Z,2.65
2017-12-09T05:13:07.644Z,2.92
2017-12-09T05:15:36.777Z,2.58
2017-12-09T05:18:04.731Z,2.20
2017-12-09T05:20:32.359Z,2.60
2017-12-09T05:22:59.998Z,2.72
2017-12-09T05:25:28.005Z,2.78
2017-12-09T05:27:56.492Z,2.56
2017-12-09T05:30:24.306Z,2.69
2017-12-09T05:32:51.848Z,2.83
2017-12-09T05:35:19.456Z,2.97
2017-12-09T05:37:47.071Z,2.71
2017-12-09T05:40:14.855Z,2.80
2017-12-09T05:42:42.672Z,3.10
2017-12-09T05:45:10.258Z,2.92
2017-12-09T05:47:38.186Z,3.02
2017-12-09T05:50:06.041Z,3.14
2017-12-09T05:52:33.672Z,2.80
2017-12-09T05:55:01.256Z,3.06
2017-12-09T05:57:29.044Z,3.77
2017-12-09T05:59:58.261Z,3.47
2017-12-09T06:02:25.917Z,4.36
2017-12-09T06:04:53.489Z,4.45
2017-12-09T06:07:21.059Z,5.24
2017-12-09T06:09:48.701Z,5.42
2017-12-09T06:12:18.445Z,6.15
2017-12-09T06:14:46.349Z,6.24
2017-12-09T06:17:14.133Z,6.36
2017-12-09T06:19:41.904Z,7.27
2017-12-09T06:22:09.791Z,8.19
2017-12-09T06:24:37.562Z,8.48
2017-12-09T06:27:06.329Z,8.20
2017-12-09T06:36:34.719Z,7.70
2017-12-09T06:39:02.702Z,7.46
2017-12-09T06:41:30.492Z,6.65
2017-12-09T06:43:58.273Z,6.68
2017-12-09T06:46:26.032Z,6.99
2017-12-09T06:49:01.423Z,7.96
2017-12-09T06:51:30.695Z,7.97
2017-12-09T06:53:59.313Z,7.94
2017-12-09T06:56:27.050Z,8.63
2017-12-09T06:58:54.711Z,8.14
2017-12-09T07:01:22.462Z,7.13
2017-12-09T07:03:50.265Z,8.48
2017-12-09T07:06:18.405Z,7.56
2017-12-09T07:08:46.203Z,8.63
2017-12-09T07:11:14.931Z,8.32
2017-12-09T07:13:42.777Z,7.68
2017-12-09T07:16:11.232Z,7.11
2017-12-09T07:18:39.207Z,7.38
2017-12-09T07:21:07.991Z,6.87
2017-12-09T07:23:37.335Z,6.80
2017-12-09T07:26:05.148Z,6.52
2017-12-09T07:28:32.812Z,5.84
2017-12-09T07:31:01.243Z,6.54
2017-12-09T07:33:28.915Z,6.56
2017-12-09T07:35:58.358Z,6.01
2017-12-09T07:38:26.411Z,6.50
2017-12-09T07:40:54.827Z,7.01
2017-12-09T07:43:29.047Z,6.63
2017-12-09T07:46:04.029Z,7.16
2017-12-09T07:48:31.983Z,7.03
2017-12-09T07:51:01.133Z,7.57
2017-12-09T07:53:30.685Z,7.29
2017-12-09T07:56:13.535Z,8.04
2017-12-09T07:58:42.071Z,7.61
2017-12-09T08:01:09.763Z,7.64
2017-12-09T08:03:37.897Z,6.93
2017-12-09T08:06:05.573Z,7.66
2017-12-09T08:08:34.988Z,7.70
2017-12-09T08:11:02.790Z,7.37
2017-12-09T08:13:31.407Z,7.53
2017-12-09T08:16:00.262Z,7.42
2017-12-09T08:18:28.098Z,7.16
2017-12-09T08:23:28.437Z,7.42
2017-12-09T08:25:56.121Z,7.72
2017-12-09T08:28:23.776Z,7.22
2017-12-09T08:30:52.063Z,7.64
2017-12-09T08:33:19.795Z,7.78
2017-12-09T08:35:48.095Z,7.58
2017-12-09T08:38:15.833Z,8.09
2017-12-09T08:40:43.930Z,8.72
2017-12-09T08:43:12.643Z,8.64
2017-12-09T08:45:40.420Z,8.14
2017-12-09T08:48:08.116Z,8.22
2017-12-09T08:50:36.016Z,8.15
2017-12-09T08:53:03.759Z,8.02
2017-12-09T08:55:31.412Z,7.54
2017-12-09T08:57:59.021Z,8.22
2017-12-09T09:00:27.093Z,7.46
2017-12-09T09:02:55.506Z,7.37
2017-12-09T09:05:23.184Z,7.62
2017-12-09T09:07:50.883Z,7.49
2017-12-09T09:10:18.636Z,8.11
2017-12-09T09:12:46.237Z,8.13
2017-12-09T09:15:14.131Z,7.99
2017-12-09T09:17:41.761Z,8.35
2017-12-09T09:20:09.386Z,8.65
2017-12-09T09:22:36.981Z,8.72
2017-12-09T09:25:04.554Z,8.80
2017-12-09T09:27:32.342Z,8.89
2017-12-09T09:30:00.125Z,9.10
2017-12-09T09:32:27.829Z,9.20
2017-12-09T09:34:55.639Z,9.34
2017-12-09T09:37:23.244Z,9.17
2017-12-09T09:39:51.590Z,9.19
2017-12-09T09:42:19.425Z,9.28
2017-12-09T09:44:47.194Z,9.27
2017-12-09T09:47:14.826Z,9.63
2017-12-09T09:49:42.397Z,9.44
2017-12-09T09:52:10.101Z,9.62
2017-12-09T09:54:37.965Z,9.57
2017-12-09T09:57:05.617Z,9.59
2017-12-09T09:59:33.469Z,9.52
2017-12-09T10:02:02.954Z,9.89
2017-12-09T10:04:30.599Z,9.65
2017-12-09T10:06:58.186Z,9.80
2017-12-09T10:09:25.793Z,9.95
2017-12-09T10:11:53.542Z,9.95
2017-12-09T10:14:21.101Z,9.85
2017-12-09T10:16:48.663Z,10.06
2017-12-09T10:19:16.260Z,10.30
2017-12-09T10:21:44.050Z,10.29
2017-12-09T10:24:11.760Z,10.50
2017-12-09T10:26:39.319Z,10.78
2017-12-09T10:29:07.674Z,10.69
2017-12-09T10:31:35.275Z,10.74
2017-12-09T10:34:02.917Z,10.67
2017-12-09T10:36:30.539Z,10.60
2017-12-09T10:38:58.117Z,10.01
2017-12-09T10:41:25.720Z,11.16
2017-12-09T10:43:53.324Z,11.46
2017-12-09T10:46:20.916Z,11.67
2017-12-09T10:48:48.710Z,12.02
2017-12-09T10:51:16.315Z,12.13
2017-12-09T10:53:43.974Z,12.05
2017-12-09T10:56:11.801Z,12.16
2017-12-09T10:58:39.733Z,12.15
2017-12-09T11:01:07.330Z,12.18
2017-12-09T11:03:34.937Z,12.32
2017-12-09T11:06:02.570Z,12.00
2017-12-09T11:08:30.164Z,11.63
2017-12-09T11:10:57.796Z,11.86
2017-12-09T11:13:25.361Z,11.85
2017-12-09T11:15:53.030Z,11.55
2017-12-09T11:18:20.596Z,11.67
2017-12-09T11:20:48.247Z,11.87
2017-12-09T11:23:15.866Z,11.73
2017-12-09T11:25:43.984Z,11.95
2017-12-09T11:28:11.606Z,11.35
2017-12-09T11:30:39.192Z,11.36
2017-12-09T11:33:06.754Z,11.81
2017-12-09T11:35:34.830Z,11.94
2017-12-09T11:38:02.480Z,11.96
2017-12-09T11:40:30.098Z,11.99
2017-12-09T11:42:57.701Z,11.68
2017-12-09T11:45:25.298Z,11.81
2017-12-09T11:47:52.862Z,12.15
2017-12-09T11:50:20.482Z,12.14
2017-12-09T11:52:48.101Z,11.74
2017-12-09T11:55:15.710Z,12.35
2017-12-09T11:57:43.322Z,12.63
2017-12-09T12:00:10.951Z,12.56
2017-12-09T12:02:39.563Z,12.38
2017-12-09T12:05:07.134Z,12.73
2017-12-09T12:07:34.744Z,13.08
2017-12-09T12:10:02.383Z,13.52
2017-12-09T12:12:29.960Z,13.60
2017-12-09T12:14:57.552Z,13.58
2017-12-09T12:17:25.149Z,13.68
2017-12-09T12:19:52.761Z,14.31
2017-12-09T12:22:20.337Z,14.48
2017-12-09T12:24:48.129Z,14.84
2017-12-09T12:27:15.713Z,15.39
2017-12-09T12:29:43.633Z,15.64
2017-12-09T12:32:11.288Z,15.74
2017-12-09T12:34:39.089Z,15.30
2017-12-09T12:37:06.852Z,15.26
2017-12-09T12:39:34.471Z,15.65
2017-12-09T12:42:02.273Z,15.29
2017-12-09T12:44:29.823Z,15.04
2017-12-09T12:46:57.468Z,14.74
2017-12-09T12:49:25.109Z,15.05
2017-12-09T12:52:09.156Z,14.85
2017-12-09T12:54:37.631Z,15.04
2017-12-09T12:57:08.693Z,15.16
2017-12-09T13:02:35.784Z,15.57
2017-12-09T13:05:08.418Z,15.81
2017-12-09T13:07:39.856Z,15.91
2017-12-09T13:10:09.116Z,16.09
2017-12-09T13:12:44.087Z,16.01
2017-12-09T13:15:13.738Z,16.26
2017-12-09T13:17:50.168Z,15.77
2017-12-09T13:20:40.836Z,15.62
2017-12-09T13:23:12.637Z,15.55
2017-12-09T13:28:29.458Z,15.69
2017-12-09T13:30:57.136Z,15.65
2017-12-09T13:33:24.735Z,15.53
2017-12-09T13:35:53.161Z,15.46
2017-12-09T13:38:21.085Z,15.37
2017-12-09T13:40:48.886Z,15.58
2017-12-09T13:43:17.406Z,15.59
2017-12-09T13:45:46.229Z,15.29
2017-12-09T13:48:20.328Z,14.67
2017-12-09T13:50:58.274Z,14.93
2017-12-09T13:56:16.629Z,14.45
2017-12-09T13:58:46.980Z,14.32
2017-12-09T14:01:14.814Z,14.67
2017-12-09T14:03:42.392Z,14.55
2017-12-09T14:06:09.966Z,14.70
2017-12-09T14:08:37.559Z,14.70
2017-12-09T14:11:05.162Z,14.65
2017-12-09T14:13:32.888Z,14.42
2017-12-09T14:16:00.501Z,14.33
2017-12-09T14:18:28.962Z,14.28
2017-12-09T14:20:56.573Z,13.97
2017-12-09T14:23:26.480Z,13.85
2017-12-09T14:29:02.110Z,13.73
2017-12-09T14:31:30.268Z,13.61
2017-12-09T14:33:57.892Z,13.50
2017-12-09T14:36:25.515Z,13.45
2017-12-09T14:38:53.285Z,13.48
2017-12-09T14:41:20.965Z,13.45
2017-12-09T14:43:48.591Z,13.58
2017-12-09T14:46:23.666Z,13.29
2017-12-09T14:48:51.223Z,13.13
2017-12-09T14:51:19.167Z,13.27
2017-12-09T14:53:46.819Z,13.25
2017-12-09T14:56:14.392Z,13.18
2017-12-09T14:58:41.990Z,13.25
2017-12-09T15:01:09.993Z,13.15
2017-12-09T15:03:37.590Z,13.15
2017-12-09T15:06:05.460Z,13.37
2017-12-09T15:08:33.320Z,13.44
2017-12-09T15:11:01.866Z,13.50
2017-12-09T15:13:29.657Z,13.49
2017-12-09T15:15:57.635Z,13.34
2017-12-09T15:18:25.393Z,13.30
2017-12-09T15:20:53.015Z,13.32
2017-12-09T15:23:20.727Z,13.39
2017-12-09T15:25:48.406Z,13.27
2017-12-09T15:28:16.243Z,13.42
2017-12-09T15:30:44.032Z,13.42
2017-12-09T15:33:11.710Z,13.30
2017-12-09T15:35:39.318Z,13.00
2017-12-09T15:38:07.720Z,12.93
2017-12-09T15:40:35.423Z,13.22
2017-12-09T15:43:02.971Z,13.11
2017-12-09T15:45:30.644Z,12.96
2017-12-09T15:47:58.974Z,12.95
2017-12-09T15:50:27.413Z,13.13
2017-12-09T15:52:55.228Z,13.17
2017-12-09T15:55:23.531Z,13.25
2017-12-09T15:57:51.276Z,13.19
2017-12-09T16:00:19.299Z,13.00
2017-12-09T16:02:46.883Z,13.08
2017-12-09T16:05:14.458Z,13.05
2017-12-09T16:07:42.751Z,13.01
2017-12-09T16:10:13.315Z,13.05
2017-12-09T16:12:41.273Z,13.14
2017-12-09T16:15:09.226Z,13.05
2017-12-09T16:17:37.283Z,12.71
2017-12-09T16:20:04.882Z,12.99
2017-12-09T16:22:32.464Z,12.99
2017-12-09T16:25:00.324Z,13.15
2017-12-09T16:27:27.966Z,13.16
2017-12-09T16:29:56.724Z,13.00
2017-12-09T16:32:24.465Z,12.85
2017-12-09T16:34:52.051Z,12.80
2017-12-09T16:37:19.720Z,12.94
2017-12-09T16:39:47.401Z,13.14
2017-12-09T16:42:14.986Z,13.18
2017-12-09T16:44:42.554Z,13.26
2017-12-09T16:47:10.162Z,13.16
2017-12-09T16:49:37.789Z,13.32
2017-12-09T16:52:05.710Z,13.15
2017-12-09T16:54:33.317Z,13.16
2017-12-09T16:57:00.904Z,13.24
2017-12-09T16:59:29.342Z,13.61
2017-12-09T17:01:57.393Z,13.53
2017-12-09T17:04:25.302Z,13.46
2017-12-09T17:06:52.856Z,13.40
2017-12-09T17:09:21.910Z,13.47
2017-12-09T17:11:49.557Z,13.47
2017-12-09T17:14:18.002Z,13.44
2017-12-09T17:16:45.607Z,13.29
2017-12-09T17:19:13.496Z,13.30
2017-12-09T17:21:41.145Z,13.22
2017-12-09T17:24:08.878Z,13.36
2017-12-09T17:26:36.790Z,13.35
2017-12-09T17:29:04.581Z,13.36
2017-12-09T17:31:32.339Z,13.33
2017-12-09T17:34:00.226Z,13.23
2017-12-09T17:36:28.165Z,13.09
2017-12-09T17:38:55.946Z,13.15
2017-12-09T17:41:24.031Z,13.26
2017-12-09T17:43:52.496Z,13.10
2017-12-09T17:46:20.205Z,13.05
2017-12-09T17:48:48.705Z,12.83
2017-12-09T17:51:16.359Z,13.14
2017-12-09T17:53:44.450Z,12.98
2017-12-09T17:56:12.074Z,12.91
2017-12-09T17:58:39.717Z,13.09
2017-12-09T18:01:09.486Z,12.54
2017-12-09T18:03:38.641Z,12.36
2017-12-09T18:06:08.909Z,12.64
2017-12-09T18:08:37.612Z,12.74
2017-12-09T18:11:05.579Z,12.68
2017-12-09T18:13:33.376Z,12.66
2017-12-09T18:16:01.112Z,12.63
2017-12-09T18:18:29.716Z,12.78
2017-12-09T18:20:58.044Z,12.06
2017-12-09T18:23:26.098Z,12.05
2017-12-09T18:25:54.636Z,11.94
2017-12-09T18:28:22.452Z,11.98
2017-12-09T18:30:50.128Z,11.94
2017-12-09T18:33:18.587Z,11.73
2017-12-09T18:35:47.278Z,11.29
2017-12-09T18:38:15.018Z,11.79
2017-12-09T18:40:42.722Z,11.44
2017-12-09T18:43:10.382Z,11.31
2017-12-09T18:45:38.425Z,11.12
2017-12-09T18:48:06.234Z,10.64
2017-12-09T18:50:34.461Z,10.91
2017-12-09T18:53:02.492Z,10.43
2017-12-09T18:55:32.097Z,10.39
2017-12-09T18:58:00.077Z,10.23
2017-12-09T19:00:29.322Z,10.06
2017-12-09T19:02:57.411Z,9.87
2017-12-09T19:05:26.788Z,9.69
2017-12-09T19:07:57.242Z,9.63
2017-12-09T19:10:26.427Z,9.62
2017-12-09T19:13:00.367Z,9.31
2017-12-09T19:15:28.046Z,9.48
2017-12-09T19:17:55.730Z,9.29
2017-12-09T19:20:23.565Z,9.16
2017-12-09T19:22:51.211Z,9.33
2017-12-09T19:25:19.751Z,9.52
2017-12-09T19:27:47.845Z,9.29
2017-12-09T19:30:15.470Z,9.46
2017-12-09T19:32:43.395Z,9.15
2017-12-09T19:35:11.404Z,9.03
2017-12-09T19:37:39.047Z,9.16
2017-12-09T19:40:06.698Z,9.20
2017-12-09T19:42:34.412Z,8.98
2017-12-09T19:45:02.019Z,8.68
2017-12-09T19:47:29.661Z,8.95
2017-12-09T19:49:57.258Z,8.68
2017-12-09T19:52:25.701Z,8.86
2017-12-09T19:54:53.543Z,8.97
2017-12-09T19:57:21.380Z,8.60
2017-12-09T19:59:49.686Z,8.75
2017-12-09T20:02:18.008Z,8.49
2017-12-09T20:04:46.323Z,8.55
2017-12-09T20:07:13.956Z,8.67
2017-12-09T20:09:41.800Z,8.45
2017-12-09T20:12:09.546Z,8.39
2017-12-09T20:14:38.067Z,8.57
2017-12-09T20:17:06.034Z,8.60
2017-12-09T20:19:33.715Z,8.43
2017-12-09T20:22:01.350Z,8.50
2017-12-09T20:24:28.959Z,8.46
2017-12-09T20:26:57.201Z,8.52
2017-12-09T20:29:25.088Z,8.69
2017-12-09T20:31:52.699Z,8.94
2017-12-09T20:34:20.347Z,9.21
2017-12-09T20:36:48.795Z,9.26
2017-12-09T20:39:17.403Z,9.00
2017-12-09T20:41:45.259Z,8.95
2017-12-09T20:44:12.910Z,8.67
2017-12-09T20:46:41.565Z,8.90
2017-12-09T20:49:09.410Z,9.11
2017-12-09T20:51:37.062Z,9.13
2017-12-09T20:54:05.624Z,9.32
2017-12-09T20:56:33.379Z,9.17
2017-12-09T20:59:01.130Z,9.42
2017-12-09T21:01:28.850Z,9.65
2017-12-09T21:03:56.522Z,9.56
2017-12-09T21:06:24.453Z,9.48
2017-12-09T21:08:52.283Z,9.14
2017-12-09T21:11:19.977Z,9.29
2017-12-09T21:13:47.757Z,9.36
2017-12-09T21:16:15.994Z,9.18
2017-12-09T21:18:43.649Z,9.30
2017-12-09T21:21:11.285Z,9.28
2017-12-09T21:23:39.061Z,9.03
2017-12-09T21:26:07.225Z,9.12
2017-12-09T21:28:35.074Z,9.46
2017-12-09T21:31:02.712Z,9.58
2017-12-09T21:33:30.474Z,9.67
2017-12-09T21:35:58.294Z,9.78
2017-12-09T21:38:26.005Z,9.84
2017-12-09T21:40:53.617Z,9.83
2017-12-09T21:43:21.448Z,9.98
2017-12-09T21:45:49.152Z,9.96
2017-12-09T21:48:16.781Z,9.99
2017-12-09T21:50:45.271Z,9.78
2017-12-09T21:53:13.139Z,9.71
2017-12-09T21:55:41.110Z,9.87
2017-12-09T21:58:08.720Z,9.75
2017-12-09T22:00:36.527Z,9.72
2017-12-09T22:03:05.131Z,9.28
2017-12-09T22:05:32.807Z,9.54
2017-12-09T22:08:00.518Z,9.80
2017-12-09T22:10:28.079Z,9.82
2017-12-09T22:12:55.667Z,9.87
2017-12-09T22:15:23.314Z,9.65
2017-12-09T22:17:51.139Z,9.69
2017-12-09T22:20:19.123Z,9.22
2017-12-09T22:22:47.632Z,7.98
2017-12-09T22:25:15.612Z,7.40
2017-12-09T22:27:44.529Z,6.79
2017-12-09T22:30:12.286Z,6.02
2017-12-09T22:32:40.820Z,5.76
2017-12-09T22:35:10.217Z,5.40
2017-12-09T22:37:38.956Z,5.37
2017-12-09T22:40:06.597Z,5.09
2017-12-09T22:42:34.276Z,5.06
2017-12-09T22:45:02.096Z,4.88
2017-12-09T22:47:30.142Z,4.89
2017-12-09T22:49:58.125Z,5.05
2017-12-09T22:52:25.895Z,5.22
2017-12-09T22:54:53.989Z,5.27
2017-12-09T22:57:21.707Z,5.34
2017-12-09T22:59:49.330Z,5.35
2017-12-09T23:02:16.985Z,5.48
2017-12-09T23:05:01.224Z,5.63
2017-12-09T23:07:28.818Z,5.43
2017-12-09T23:09:56.617Z,5.49
2017-12-09T23:12:24.406Z,5.32
2017-12-09T23:14:52.057Z,5.20
2017-12-09T23:17:19.885Z,4.87
2017-12-09T23:19:47.626Z,4.42
2017-12-09T23:22:17.041Z,4.49
2017-12-09T23:24:44.865Z,3.94
2017-12-09T23:27:12.505Z,3.88
2017-12-09T23:29:42.533Z,3.68
2017-12-09T23:32:10.105Z,3.54
2017-12-09T23:34:38.233Z,3.26
2017-12-09T23:37:06.292Z,3.12
2017-12-09T23:39:34.133Z,2.98
2017-12-09T23:42:01.678Z,2.76
2017-12-09T23:44:29.653Z,2.89
2017-12-09T23:46:58.175Z,2.94
2017-12-09T23:49:26.908Z,2.86
2017-12-09T23:51:54.473Z,2.88
2017-12-09T23:54:22.132Z,2.81
2017-12-09T23:56:49.730Z,2.84
2017-12-09T23:59:17.529Z,2.85
